Surface observations / UK / EGOM

Quebec | Canada | USA | France | UK | Europe | Elsewhere

Display: Info & Location for EGOM | Help decoding METAR


Raw surface observations for station EGOM
EGOM 291050Z 25027G38KT 9999 SCT018 BKN054 11/08 Q1004 WHT=
EGOM 290950Z 25024G37KT 9999 BKN017 SCT050 11/09 Q1003 WHT=
EGOM 290850Z 26019G31KT 9999 -RA FEW013 SCT014 BKN020 11/09 Q1004 GRN=
EGOM 290750Z 26017KT 9999 BKN010 BKN022 10/09 Q1004 GRN=
EGOM 290650Z AUTO 25019KT 1100 +SHRA FEW008/// BKN012/// 10/09 Q1003=
EGOM 290550Z AUTO 24024G35KT 5000 HZ BKN012/// SCT020/// 11/10 Q1003 RERA=
EGOM 290450Z AUTO 25018KT 9999 SCT014/// SCT024/// 11/09 Q1004=
EGOM 290350Z AUTO 25022KT 9999 SCT015/// SCT022/// 11/09 Q1004=
EGOM 290250Z AUTO 25021G33KT 9999 FEW009/// BKN030/// 11/10 Q1005 RERA=
EGOM 290150Z AUTO 25027G39KT 9999 BKN007/// BKN015/// 13/12 Q1005=
EGOM 290050Z AUTO 25027G39KT 9999 BKN005/// SCT013/// 14/13 Q1005 RERA=
EGOM 282250Z AUTO 23026G37KT 9999 OVC002/// 15/14 Q1006 RERA=
EGOM 282150Z AUTO 23020G30KT 2700 RA OVC002/// 14/14 Q1006=
EGOM 282050Z AUTO 22023KT 1900 +RA BKN002/// SCT010/// 14/14 Q1007=
EGOM 281950Z AUTO 23025KT 2900 +RA FEW044/// BKN050/// 15/14 Q1007=
EGOM 281850Z AUTO 23020KT 9999 -DZ SCT009/// BKN110/// 16/15 Q1008=
EGOM 281750Z AUTO 24021KT 9999 FEW005/// SCT012/// BKN100/// 17/16 Q1009 RERA=
EGOM 281650Z AUTO 24023G35KT 9999 SCT004/// BKN014/// BKN024/// 17/16 Q1010=
EGOM 281550Z AUTO 24023KT 8000 BR OVC001/// 16/16 Q1011=
EGOM 281450Z 23025G38KT 3400 RADZ OVC001 16/16 Q1012 RED=
EGOM 281350Z AUTO 24019G30KT 3100 DZ OVC002/// 16/16 Q1013=
EGOM 281250Z AUTO 23014KT 0900 -DZ OVC002/// 14/14 Q1014=
EGOM 281150Z 23011KT 2200 RADZ OVC002 14/14 Q1015 AMB=
EGOM 281050Z 22009KT 2200 RADZ OVC002 13/13 Q1016 AMB=